Etusivu
METAR-TAF:

METAR-TAF

Lentoasemat :

Borlänge, Ruotsi

Leveyspiiri: 60-26N, Pituuspiiri: 015-31E, korkeus merenpinnasta: 145 m

Tämänhetkinen sää

Tämä raportti tehtiin 31 minuuttia sitten, kello 17.50 UTC
Tuuli 6 kn lännestä
Lämpötila 0°C
Kosteus 86%
Ilmanpaine 1033 hPa
Näkyvyys 10 km tai enemmän
Pilvistä 1800 ft:n korkeudessa
heikkoa lumisadetta

METAR: ESSD 211750Z 27006KT 9999 -SN OVC018 M00/M02 Q1033

Aika: 19:21 (18:21 UTC)

Sääennuste

Tämä raportti tehtiin 6 tuntia ja 51 minuuttia sitten, kello 11.30 UTC
Ennuste voimassa 21. päivästä klo 12 UTC - 21. päivään klo 16 UTC
Tuuli 6 kn idästä/koillisesta
Näkyvyys 10 km tai enemmän
Hajanaisia pilviä 1200 ft:n korkeudessa
Hajonneita pilviä 2000 ft:n korkeudessa
Todennäköisyys 40%
21. päivästä klo 12 UTC - 21. päivään klo 16 UTC
Hajonneita pilviä 1200 ft:n korkeudessa

TAF: ESSD 211130Z 2112/2116 07006KT 9999 SCT012 BKN020 PROB40 2112/2116 BKN012

Säähavainnot ja -ennusteet yli 4000 lentoasemalta (METAR- ja TAF-raportit).

Käytössä olevat sääasemat on merkitty karttaan keltaisilla ja punaisilla pisteillä.

Aseta hiiri pisteen päälle nähdäksesi sääaseman nimen.

Klikkaa sitten nähdäksesi säähavainnot ja -ennusteet.

Kartan vaihtaminen: klikkaa mustalla rastilla varustettuja vihreitä pisteitä, niin voit zoomata sisään; viivalla varustettua vihreää pistettä, niin voit zoomata ulos tai vihreitä nuolia, niin pääset viereisille kartoille.


METAR-TAF: